DLH716 EDDM-EDDF
Flight info
| Callsign | DLH716 |
|---|---|
| Flight time | N/A |
| Altitude | 22000 |
| Route | GIVMI6S GIVMI Y101 ERNAS T161 DEBHI DEBHI1B |
| Aircraft | A21N/M-SDE2E3FGHIRWXY/LB1 |
Departure
| Time | 2026-05-07 16:12 |
|---|---|
| Airport | Munich Airport (EDDM) |
Arrival
| Time | N/A |
|---|---|
| Airport | Frankfurt Main Airport (EDDF) |
| Time | Latitude | Longitude | Altitude | Speed | Heading |
|---|---|---|---|---|---|
| 2026-05-07 15:40 | 48.35547 | 11.79303 | 1491 ft | 0 kts | 263° |
| 2026-05-07 15:58 | 48.35548 | 11.79305 | 1491 ft | 2 kts | 263° |
| 2026-05-07 15:58 | 48.35551 | 11.79355 | 1483 ft | 4 kts | 265° |
| 2026-05-07 15:58 | 48.35554 | 11.79391 | 1475 ft | 3 kts | 265° |
| 2026-05-07 15:58 | 48.35550 | 11.79425 | 1475 ft | 4 kts | 313° |
| 2026-05-07 15:59 | 48.35529 | 11.79441 | 1477 ft | 4 kts | 352° |
| 2026-05-07 15:59 | 48.35521 | 11.79442 | 1478 ft | 1 kts | 353° |
| 2026-05-07 15:59 | 48.35518 | 11.79443 | 1479 ft | 0 kts | 353° |
| 2026-05-07 16:03 | 48.35519 | 11.79443 | 1491 ft | 1 kts | 353° |
| 2026-05-07 16:03 | 48.35537 | 11.79439 | 1483 ft | 4 kts | 353° |
| 2026-05-07 16:03 | 48.35576 | 11.79432 | 1477 ft | 7 kts | 353° |
| 2026-05-07 16:04 | 48.35630 | 11.79422 | 1486 ft | 9 kts | 353° |
| 2026-05-07 16:04 | 48.35699 | 11.79411 | 1484 ft | 11 kts | 353° |
| 2026-05-07 16:04 | 48.35782 | 11.79397 | 1477 ft | 10 kts | 353° |
| 2026-05-07 16:04 | 48.35859 | 11.79389 | 1488 ft | 12 kts | 10° |
| 2026-05-07 16:05 | 48.35920 | 11.79484 | 1485 ft | 14 kts | 40° |
| 2026-05-07 16:05 | 48.36019 | 11.79496 | 1479 ft | 13 kts | 347° |
| 2026-05-07 16:05 | 48.36035 | 11.79490 | 1485 ft | 0 kts | 353° |
| 2026-05-07 16:06 | 48.36036 | 11.79490 | 1486 ft | 1 kts | 353° |
| 2026-05-07 16:06 | 48.36056 | 11.79486 | 1491 ft | 5 kts | 353° |
| 2026-05-07 16:07 | 48.36098 | 11.79478 | 1491 ft | 8 kts | 353° |
| 2026-05-07 16:07 | 48.36161 | 11.79467 | 1484 ft | 10 kts | 357° |
| 2026-05-07 16:07 | 48.36217 | 11.79529 | 1491 ft | 12 kts | 81° |
| 2026-05-07 16:07 | 48.36229 | 11.79664 | 1491 ft | 14 kts | 82° |
| 2026-05-07 16:08 | 48.36242 | 11.79818 | 1491 ft | 16 kts | 84° |
| 2026-05-07 16:08 | 48.36254 | 11.79990 | 1491 ft | 17 kts | 84° |
| 2026-05-07 16:08 | 48.36268 | 11.80179 | 1485 ft | 19 kts | 83° |
| 2026-05-07 16:08 | 48.36283 | 11.80376 | 1487 ft | 20 kts | 83° |
| 2026-05-07 16:09 | 48.36300 | 11.80594 | 1491 ft | 22 kts | 83° |
| 2026-05-07 16:09 | 48.36317 | 11.80805 | 1486 ft | 20 kts | 83° |
| 2026-05-07 16:09 | 48.36334 | 11.81018 | 1491 ft | 21 kts | 84° |
| 2026-05-07 16:09 | 48.36361 | 11.81199 | 1484 ft | 17 kts | 34° |
| 2026-05-07 16:10 | 48.36440 | 11.81106 | 1480 ft | 19 kts | 294° |
| 2026-05-07 16:10 | 48.36495 | 11.80922 | 1486 ft | 20 kts | 293° |
| 2026-05-07 16:10 | 48.36552 | 11.80721 | 1487 ft | 22 kts | 293° |
| 2026-05-07 16:10 | 48.36571 | 11.80580 | 1491 ft | 0 kts | 259° |
| 2026-05-07 16:11 | 48.36552 | 11.80373 | 1484 ft | 55 kts | 264° |
| 2026-05-07 16:11 | 48.36483 | 11.79441 | 1491 ft | 121 kts | 264° |
| 2026-05-07 16:11 | 48.36370 | 11.77957 | 1490 ft | 162 kts | 264° |
| 2026-05-07 16:12 | 48.36227 | 11.76267 | 2020 ft | 159 kts | 264° |
| 2026-05-07 16:12 | 48.36105 | 11.74648 | 2720 ft | 154 kts | 268° |
| 2026-05-07 16:12 | 48.36014 | 11.73036 | 3288 ft | 155 kts | 266° |
| 2026-05-07 16:12 | 48.35893 | 11.71421 | 3854 ft | 156 kts | 266° |
| 2026-05-07 16:13 | 48.35769 | 11.69817 | 4507 ft | 162 kts | 265° |
| 2026-05-07 16:13 | 48.35784 | 11.68052 | 5235 ft | 168 kts | 283° |
| 2026-05-07 16:13 | 48.36275 | 11.66426 | 5969 ft | 175 kts | 302° |
| 2026-05-07 16:13 | 48.36944 | 11.64870 | 6738 ft | 181 kts | 301° |
| 2026-05-07 16:14 | 48.37670 | 11.63116 | 7039 ft | 217 kts | 300° |
| 2026-05-07 16:14 | 48.38523 | 11.61034 | 7072 ft | 257 kts | 300° |
| 2026-05-07 16:14 | 48.39475 | 11.58701 | 7077 ft | 263 kts | 300° |
| 2026-05-07 16:14 | 48.40433 | 11.56352 | 7059 ft | 263 kts | 300° |
| 2026-05-07 16:15 | 48.41387 | 11.54008 | 7043 ft | 263 kts | 300° |
| 2026-05-07 16:15 | 48.42345 | 11.51656 | 7039 ft | 263 kts | 300° |